Dione Leader — 3ETU9 — position and weather

sailwx.info

Track history (hours):
 
Tides and Currents Weather Stations Pressure Air Temp Water Temp Dewpoint Dewpoint Depression Visibility Wind Speed Wind Dir Waves Ship Positions

Dione Leader

Last reported at 2018-Feb-12 14:50 UTC. Time now 2018-Feb-25 13:23 UTC.
Position N 37°46' E 015°38'.
Warning: this ship's position is 12 days out of date.

Length 199 m; draft 9.7 m.

Type: Cargo ship. MMSI: 352023000.

Date/timePositionNaut miles runAvg speedWind from/ knotsBaromVisibWave heightAir tempDewpointWater temp
2018-Feb-12 14:50N 37°46' E 015°38'617.1
2018-Feb-12 14:30N 37°51' E 015°33'917.3
2018-Feb-12 13:59N 37°60' E 015°32'817.1
2018-Feb-12 13:30N 38°08' E 015°35'815.7
2018-Feb-12 13:00N 38°15' E 015°38'4 8.6
2018-Feb-12 12:30N 38°19' E 015°40'815.4
2018-Feb-12 12:00N 38°25' E 015°33'816.8
2018-Feb-12 11:30N 38°31' E 015°26'817.0
2018-Feb-12 11:00N 38°38' E 015°20'917.2
2018-Feb-12 10:30N 38°44' E 015°12'916.9
2018-Feb-12 09:58N 38°51' E 015°05'29110.3
2018-Feb-11 05:43N 42°20' E 010°37'1615.6
2018-Feb-11 04:42N 42°27' E 010°18'515.9
2018-Feb-11 04:25N 42°29' E 010°12'1715.6
2018-Feb-11 03:18N 42°35' E 009°51'3615.5
2018-Feb-11 00:58N 43°09' E 009°32'716.3
2018-Feb-11 00:31N 43°16' E 009°30'816.4
2018-Feb-11 00:00N 43°24' E 009°28'816.3
2018-Feb-10 23:31N 43°32' E 009°25'816.3
2018-Feb-10 23:01N 43°40' E 009°22'815.8
2018-Feb-10 22:30N 43°47' E 009°17'815.9
2018-Feb-10 22:01N 43°52' E 009°09'815.7
2018-Feb-10 21:30N 43°57' E 009°00'816.1
2018-Feb-10 21:01N 44°02' E 008°51'816.0
2018-Feb-10 20:30N 44°08' E 008°44'816.3
2018-Feb-10 20:00N 44°14' E 008°37'713.2
2018-Feb-10 19:30N 44°19' E 008°31'1 1.4
2018-Feb-10 18:59N 44°19' E 008°30'0 0.0
2018-Feb-10 18:29N 44°19' E 008°30'0 0.0
2018-Feb-10 17:59N 44°19' E 008°30'0 0.0
2018-Feb-10 17:29N 44°19' E 008°30'0 0.0
2018-Feb-10 16:59N 44°19' E 008°30'0 0.0
2018-Feb-10 16:29N 44°19' E 008°30'0 0.0
2018-Feb-10 15:59N 44°19' E 008°30'0 0.0
2018-Feb-10 15:29N 44°19' E 008°30'0 0.0
2018-Feb-10 14:59N 44°19' E 008°30'0 0.0
2018-Feb-10 14:29N 44°19' E 008°30'0 0.0
2018-Feb-10 13:59N 44°19' E 008°30'0 0.0
2018-Feb-10 13:26N 44°19' E 008°30'0 0.0
2018-Feb-10 12:59N 44°19' E 008°30'0 0.0
2018-Feb-10 12:26N 44°19' E 008°30'0 0.0
2018-Feb-10 11:56N 44°19' E 008°30'0 0.0
2018-Feb-10 11:29N 44°19' E 008°30'0 0.0
2018-Feb-10 10:56N 44°19' E 008°30'0 0.0
2018-Feb-10 10:29N 44°19' E 008°30'0 0.0
2018-Feb-10 09:55N 44°19' E 008°30'0 0.0
2018-Feb-10 09:29N 44°19' E 008°30'0 0.0
2018-Feb-10 08:59N 44°19' E 008°30'0 0.0
2018-Feb-10 08:29N 44°19' E 008°30'0 0.0
2018-Feb-10 07:59N 44°19' E 008°30'0 0.0
2018-Feb-10 07:29N 44°19' E 008°30'0 0.0
2018-Feb-10 06:58N 44°19' E 008°30'0 0.0
2018-Feb-10 06:29N 44°19' E 008°30'0 0.0
2018-Feb-10 05:59N 44°19' E 008°30'0 0.0
2018-Feb-10 05:29N 44°19' E 008°30'0 0.0
2018-Feb-10 04:55N 44°19' E 008°30'0 0.9
2018-Feb-10 04:30N 44°19' E 008°30'1 2.3
2018-Feb-10 04:00N 44°18' E 008°32'2 4.0
2018-Feb-10 03:30N 44°17' E 008°34'3 5.9
2018-Feb-10 03:00N 44°14' E 008°35'4 7.0
2018-Feb-10 02:30N 44°11' E 008°33'3 6.6
2018-Feb-10 02:00N 44°08' E 008°32'3 6.5
2018-Feb-10 01:30N 44°05' E 008°30'4 9.0
2018-Feb-10 01:00N 44°01' E 008°28'612.2
2018-Feb-10 00:30N 43°55' E 008°26'612.0
2018-Feb-10 00:00N 43°49' E 008°22'612.4
2018-Feb-09 23:30N 43°44' E 008°19'68114.7
2018-Feb-08 01:07N 36°17' W 002°52'215.7
2018-Feb-08 01:00N 36°17' W 002°54'815.9
2018-Feb-08 00:31N 36°16' W 003°04'815.9
2018-Feb-08 00:01N 36°15' W 003°14'816.4
2018-Feb-07 23:31N 36°13' W 003°24'816.1
2018-Feb-07 23:01N 36°12' W 003°34'33313.9
2018-Feb-06 23:05N 38°20' W 009°59'216.9
2018-Feb-06 22:58N 38°22' W 010°00'1616.7
2018-Feb-06 22:00N 38°37' W 010°05'1716.6
2018-Feb-06 21:00N 38°54' W 010°06'816.5
2018-Feb-06 20:30N 39°02' W 010°06'816.4
2018-Feb-06 20:00N 39°10' W 010°06'68315.5
2018-Feb-05 00:01N 49°38' W 003°51'116.7
2018-Feb-04 23:59N 49°39' W 003°50'1016.4
2018-Feb-04 23:23N 49°43' W 003°37'615.8
2018-Feb-04 23:00N 49°47' W 003°29'815.3
2018-Feb-04 22:31N 49°51' W 003°20'714.9
2018-Feb-04 22:00N 49°55' W 003°10'714.7
2018-Feb-04 21:30N 49°59' W 003°00'714.8
2018-Feb-04 21:00N 50°01' W 002°49'2816.0
2018-Feb-04 19:14N 50°09' W 002°07'517.9
2018-Feb-04 18:59N 50°10' W 001°60'918.6
2018-Feb-04 18:30N 50°13' W 001°47'1019.3
2018-Feb-04 18:00N 50°16' W 001°33'1019.6
2018-Feb-04 17:30N 50°19' W 001°18'2713.6
2018-Feb-04 15:31N 50°44' W 001°05'612.0
2018-Feb-04 15:00N 50°46' W 001°14'4 8.7
2018-Feb-04 14:30N 50°49' W 001°18'5 9.3
2018-Feb-04 14:00N 50°53' W 001°24'0 0.8
2018-Feb-04 13:29N 50°53' W 001°24'0 0.0
2018-Feb-04 12:59N 50°53' W 001°24'0 0.0
2018-Feb-04 12:29N 50°53' W 001°24'0 0.0
2018-Feb-04 11:59N 50°53' W 001°24'0 0.0
2018-Feb-04 11:29N 50°53' W 001°24'0 0.0
2018-Feb-04 09:59N 50°53' W 001°24'0 0.0
2018-Feb-04 08:59N 50°53' W 001°24'0 0.0
2018-Feb-04 08:29N 50°53' W 001°24'0 0.0
2018-Feb-04 07:59N 50°53' W 001°24'0 0.0
2018-Feb-04 07:29N 50°53' W 001°24'0 0.0
2018-Feb-04 06:59N 50°53' W 001°24'0 0.0
2018-Feb-04 06:29N 50°53' W 001°24'0 0.0
2018-Feb-04 05:59N 50°53' W 001°24'0 0.0
2018-Feb-04 05:29N 50°53' W 001°24'1 1.3
2018-Feb-04 05:00N 50°53' W 001°23'4 7.9
2018-Feb-04 04:30N 50°50' W 001°19'4 7.9
2018-Feb-04 04:00N 50°46' W 001°16'918.0
2018-Feb-04 03:30N 50°44' W 001°03'612.9
2018-Feb-04 03:00N 50°39' W 000°56'510.3
2018-Feb-04 02:30N 50°36' W 000°49'4 8.6
2018-Feb-04 02:00N 50°35' W 000°42'4 7.6
2018-Feb-04 01:30N 50°33' W 000°37'4 7.8
2018-Feb-04 01:00N 50°33' W 000°30'510.2
2018-Feb-04 00:30N 50°33' W 000°22'611.1
2018-Feb-04 00:00N 50°32' W 000°14'612.4
2018-Feb-03 23:30N 50°32' W 000°04'612.3
2018-Feb-03 23:00N 50°33' E 000°05'612.2
2018-Feb-03 22:30N 50°34' E 000°15'612.6
2018-Feb-03 22:00N 50°35' E 000°24'815.2
2018-Feb-03 21:30N 50°37' E 000°36'715.0
2018-Feb-03 21:00N 50°41' E 000°46'917.2
2018-Feb-03 20:30N 50°46' E 000°57'1018.6
2018-Feb-03 20:00N 50°51' E 001°10'2718.0
2018-Feb-03 18:30N 51°10' E 001°40'816.0
2018-Feb-03 18:01N 51°16' E 001°48'815.3
2018-Feb-03 17:31N 51°22' E 001°55'815.1
2018-Feb-03 17:01N 51°29' E 002°01'1514.6
2018-Feb-03 15:58N 51°41' E 002°17'12716.5
2018-Feb-03 08:15N 53°18' E 004°30'515.7
2018-Feb-03 07:58N 53°23' E 004°33'2114.5
2018-Feb-03 06:29N 53°35' E 005°03'9716.6
2018-Feb-03 00:39N 53°56' E 007°43'514.5
2018-Feb-03 00:19N 53°53' E 007°49'310.0
2018-Feb-02 23:58N 53°52' E 007°54'714.5
2018-Feb-02 23:30N 53°50' E 008°05'815.4
2018-Feb-02 23:00N 53°44' E 008°14'714.1
2018-Feb-02 22:30N 53°40' E 008°23'611.7
2018-Feb-02 22:00N 53°36' E 008°31'2 4.1
2018-Feb-02 21:28N 53°34' E 008°33'0 0.2
2018-Feb-02 21:01N 53°34' E 008°33'1 1.0
2018-Feb-02 20:31N 53°35' E 008°33'0 0.0
2018-Feb-02 20:00N 53°35' E 008°33'0 0.0
2018-Feb-02 19:00N 53°35' E 008°33'0 0.0
2018-Feb-02 18:30N 53°35' E 008°33'0 0.0
2018-Feb-02 18:00N 53°35' E 008°33'0 0.0
2018-Feb-02 17:30N 53°35' E 008°33'0 0.0
2018-Feb-02 17:00N 53°35' E 008°33'0 0.0
2018-Feb-02 16:30N 53°35' E 008°33'0 0.0
2018-Feb-02 15:30N 53°35' E 008°33'  
Track history (hours):
 
Tides and Currents Weather Stations Pressure Air Temp Water Temp Dewpoint Dewpoint Depression Visibility Wind Speed Wind Dir Waves Ship Positions

Dione Leader

Last reported at 2018-Feb-12 14:50 UTC. Time now 2018-Feb-25 13:23 UTC.
Position N 37°46' E 015°38'.
Warning: this ship's position is 12 days out of date.

Length 199 m; draft 9.7 m.

Type: Cargo ship. MMSI: 352023000.

Date/timePositionNaut miles runAvg speedWind from/ knotsBaromVisibWave heightAir tempDewpointWater temp
2018-Feb-12 14:50N 37°46' E 015°38'617.1
2018-Feb-12 14:30N 37°51' E 015°33'917.3
2018-Feb-12 13:59N 37°60' E 015°32'817.1
2018-Feb-12 13:30N 38°08' E 015°35'815.7
2018-Feb-12 13:00N 38°15' E 015°38'4 8.6
2018-Feb-12 12:30N 38°19' E 015°40'815.4
2018-Feb-12 12:00N 38°25' E 015°33'816.8
2018-Feb-12 11:30N 38°31' E 015°26'817.0
2018-Feb-12 11:00N 38°38' E 015°20'917.2
2018-Feb-12 10:30N 38°44' E 015°12'916.9
2018-Feb-12 09:58N 38°51' E 015°05'29110.3
2018-Feb-11 05:43N 42°20' E 010°37'1615.6
2018-Feb-11 04:42N 42°27' E 010°18'515.9
2018-Feb-11 04:25N 42°29' E 010°12'1715.6
2018-Feb-11 03:18N 42°35' E 009°51'3615.5
2018-Feb-11 00:58N 43°09' E 009°32'716.3
2018-Feb-11 00:31N 43°16' E 009°30'816.4
2018-Feb-11 00:00N 43°24' E 009°28'816.3
2018-Feb-10 23:31N 43°32' E 009°25'816.3
2018-Feb-10 23:01N 43°40' E 009°22'815.8
2018-Feb-10 22:30N 43°47' E 009°17'815.9
2018-Feb-10 22:01N 43°52' E 009°09'815.7
2018-Feb-10 21:30N 43°57' E 009°00'816.1
2018-Feb-10 21:01N 44°02' E 008°51'816.0
2018-Feb-10 20:30N 44°08' E 008°44'816.3
2018-Feb-10 20:00N 44°14' E 008°37'713.2
2018-Feb-10 19:30N 44°19' E 008°31'1 1.4
2018-Feb-10 18:59N 44°19' E 008°30'0 0.0
2018-Feb-10 18:29N 44°19' E 008°30'0 0.0
2018-Feb-10 17:59N 44°19' E 008°30'0 0.0
2018-Feb-10 17:29N 44°19' E 008°30'0 0.0
2018-Feb-10 16:59N 44°19' E 008°30'0 0.0
2018-Feb-10 16:29N 44°19' E 008°30'0 0.0
2018-Feb-10 15:59N 44°19' E 008°30'0 0.0
2018-Feb-10 15:29N 44°19' E 008°30'0 0.0
2018-Feb-10 14:59N 44°19' E 008°30'0 0.0
2018-Feb-10 14:29N 44°19' E 008°30'0 0.0
2018-Feb-10 13:59N 44°19' E 008°30'0 0.0
2018-Feb-10 13:26N 44°19' E 008°30'0 0.0
2018-Feb-10 12:59N 44°19' E 008°30'0 0.0
2018-Feb-10 12:26N 44°19' E 008°30'0 0.0
2018-Feb-10 11:56N 44°19' E 008°30'0 0.0
2018-Feb-10 11:29N 44°19' E 008°30'0 0.0
2018-Feb-10 10:56N 44°19' E 008°30'0 0.0
2018-Feb-10 10:29N 44°19' E 008°30'0 0.0
2018-Feb-10 09:55N 44°19' E 008°30'0 0.0
2018-Feb-10 09:29N 44°19' E 008°30'0 0.0
2018-Feb-10 08:59N 44°19' E 008°30'0 0.0
2018-Feb-10 08:29N 44°19' E 008°30'0 0.0
2018-Feb-10 07:59N 44°19' E 008°30'0 0.0
2018-Feb-10 07:29N 44°19' E 008°30'0 0.0
2018-Feb-10 06:58N 44°19' E 008°30'0 0.0
2018-Feb-10 06:29N 44°19' E 008°30'0 0.0
2018-Feb-10 05:59N 44°19' E 008°30'0 0.0
2018-Feb-10 05:29N 44°19' E 008°30'0 0.0
2018-Feb-10 04:55N 44°19' E 008°30'0 0.9
2018-Feb-10 04:30N 44°19' E 008°30'1 2.3
2018-Feb-10 04:00N 44°18' E 008°32'2 4.0
2018-Feb-10 03:30N 44°17' E 008°34'3 5.9
2018-Feb-10 03:00N 44°14' E 008°35'4 7.0
2018-Feb-10 02:30N 44°11' E 008°33'3 6.6
2018-Feb-10 02:00N 44°08' E 008°32'3 6.5
2018-Feb-10 01:30N 44°05' E 008°30'4 9.0
2018-Feb-10 01:00N 44°01' E 008°28'612.2
2018-Feb-10 00:30N 43°55' E 008°26'612.0
2018-Feb-10 00:00N 43°49' E 008°22'612.4
2018-Feb-09 23:30N 43°44' E 008°19'68114.7
2018-Feb-08 01:07N 36°17' W 002°52'215.7
2018-Feb-08 01:00N 36°17' W 002°54'815.9
2018-Feb-08 00:31N 36°16' W 003°04'815.9
2018-Feb-08 00:01N 36°15' W 003°14'816.4
2018-Feb-07 23:31N 36°13' W 003°24'816.1
2018-Feb-07 23:01N 36°12' W 003°34'33313.9
2018-Feb-06 23:05N 38°20' W 009°59'216.9
2018-Feb-06 22:58N 38°22' W 010°00'1616.7
2018-Feb-06 22:00N 38°37' W 010°05'1716.6
2018-Feb-06 21:00N 38°54' W 010°06'816.5
2018-Feb-06 20:30N 39°02' W 010°06'816.4
2018-Feb-06 20:00N 39°10' W 010°06'68315.5
2018-Feb-05 00:01N 49°38' W 003°51'116.7
2018-Feb-04 23:59N 49°39' W 003°50'1016.4
2018-Feb-04 23:23N 49°43' W 003°37'615.8
2018-Feb-04 23:00N 49°47' W 003°29'815.3
2018-Feb-04 22:31N 49°51' W 003°20'714.9
2018-Feb-04 22:00N 49°55' W 003°10'714.7
2018-Feb-04 21:30N 49°59' W 003°00'714.8
2018-Feb-04 21:00N 50°01' W 002°49'2816.0
2018-Feb-04 19:14N 50°09' W 002°07'517.9
2018-Feb-04 18:59N 50°10' W 001°60'918.6
2018-Feb-04 18:30N 50°13' W 001°47'1019.3
2018-Feb-04 18:00N 50°16' W 001°33'1019.6
2018-Feb-04 17:30N 50°19' W 001°18'2713.6
2018-Feb-04 15:31N 50°44' W 001°05'612.0
2018-Feb-04 15:00N 50°46' W 001°14'4 8.7
2018-Feb-04 14:30N 50°49' W 001°18'5 9.3
2018-Feb-04 14:00N 50°53' W 001°24'0 0.8
2018-Feb-04 13:29N 50°53' W 001°24'0 0.0
2018-Feb-04 12:59N 50°53' W 001°24'0 0.0
2018-Feb-04 12:29N 50°53' W 001°24'0 0.0
2018-Feb-04 11:59N 50°53' W 001°24'0 0.0
2018-Feb-04 11:29N 50°53' W 001°24'0 0.0
2018-Feb-04 09:59N 50°53' W 001°24'0 0.0
2018-Feb-04 08:59N 50°53' W 001°24'0 0.0
2018-Feb-04 08:29N 50°53' W 001°24'0 0.0
2018-Feb-04 07:59N 50°53' W 001°24'0 0.0
2018-Feb-04 07:29N 50°53' W 001°24'0 0.0
2018-Feb-04 06:59N 50°53' W 001°24'0 0.0
2018-Feb-04 06:29N 50°53' W 001°24'0 0.0
2018-Feb-04 05:59N 50°53' W 001°24'0 0.0
2018-Feb-04 05:29N 50°53' W 001°24'1 1.3
2018-Feb-04 05:00N 50°53' W 001°23'4 7.9
2018-Feb-04 04:30N 50°50' W 001°19'4 7.9
2018-Feb-04 04:00N 50°46' W 001°16'918.0
2018-Feb-04 03:30N 50°44' W 001°03'612.9
2018-Feb-04 03:00N 50°39' W 000°56'510.3
2018-Feb-04 02:30N 50°36' W 000°49'4 8.6
2018-Feb-04 02:00N 50°35' W 000°42'4 7.6
2018-Feb-04 01:30N 50°33' W 000°37'4 7.8
2018-Feb-04 01:00N 50°33' W 000°30'510.2
2018-Feb-04 00:30N 50°33' W 000°22'611.1
2018-Feb-04 00:00N 50°32' W 000°14'612.4
2018-Feb-03 23:30N 50°32' W 000°04'612.3
2018-Feb-03 23:00N 50°33' E 000°05'612.2
2018-Feb-03 22:30N 50°34' E 000°15'612.6
2018-Feb-03 22:00N 50°35' E 000°24'815.2
2018-Feb-03 21:30N 50°37' E 000°36'715.0
2018-Feb-03 21:00N 50°41' E 000°46'917.2
2018-Feb-03 20:30N 50°46' E 000°57'1018.6
2018-Feb-03 20:00N 50°51' E 001°10'2718.0
2018-Feb-03 18:30N 51°10' E 001°40'816.0
2018-Feb-03 18:01N 51°16' E 001°48'815.3
2018-Feb-03 17:31N 51°22' E 001°55'815.1
2018-Feb-03 17:01N 51°29' E 002°01'1514.6
2018-Feb-03 15:58N 51°41' E 002°17'12716.5
2018-Feb-03 08:15N 53°18' E 004°30'515.7
2018-Feb-03 07:58N 53°23' E 004°33'2114.5
2018-Feb-03 06:29N 53°35' E 005°03'9716.6
2018-Feb-03 00:39N 53°56' E 007°43'514.5
2018-Feb-03 00:19N 53°53' E 007°49'310.0
2018-Feb-02 23:58N 53°52' E 007°54'714.5
2018-Feb-02 23:30N 53°50' E 008°05'815.4
2018-Feb-02 23:00N 53°44' E 008°14'714.1
2018-Feb-02 22:30N 53°40' E 008°23'611.7
2018-Feb-02 22:00N 53°36' E 008°31'2 4.1
2018-Feb-02 21:28N 53°34' E 008°33'0 0.2
2018-Feb-02 21:01N 53°34' E 008°33'1 1.0
2018-Feb-02 20:31N 53°35' E 008°33'0 0.0
2018-Feb-02 20:00N 53°35' E 008°33'0 0.0
2018-Feb-02 19:00N 53°35' E 008°33'0 0.0
2018-Feb-02 18:30N 53°35' E 008°33'0 0.0
2018-Feb-02 18:00N 53°35' E 008°33'0 0.0
2018-Feb-02 17:30N 53°35' E 008°33'0 0.0
2018-Feb-02 17:00N 53°35' E 008°33'0 0.0
2018-Feb-02 16:30N 53°35' E 008°33'0 0.0
2018-Feb-02 15:30N 53°35' E 008°33'  

Dump ship's entire track history